createdAt,value
2024-04-02T00:01:27.261Z,100.00
2024-04-02T00:04:01.116Z,100.00
2024-04-02T00:06:30.711Z,100.00
2024-04-02T00:09:00.361Z,100.00
2024-04-02T00:11:29.993Z,100.00
2024-04-02T00:14:00.066Z,100.00
2024-04-02T00:16:29.590Z,100.00
2024-04-02T00:18:59.261Z,100.00
2024-04-02T00:21:28.871Z,100.00
2024-04-02T00:23:59.042Z,100.00
2024-04-02T00:26:28.639Z,100.00
2024-04-02T00:28:58.324Z,100.00
2024-04-02T00:31:27.991Z,100.00
2024-04-02T00:33:57.539Z,100.00
2024-04-02T00:36:27.275Z,100.00
2024-04-02T00:38:56.821Z,100.00
2024-04-02T00:41:26.682Z,100.00
2024-04-02T00:43:56.396Z,100.00
2024-04-02T00:46:26.042Z,100.00
2024-04-02T00:48:57.180Z,100.00
2024-04-02T00:51:29.787Z,100.00
2024-04-02T00:54:01.278Z,100.00
2024-04-02T00:56:32.472Z,100.00
2024-04-02T00:59:03.613Z,100.00
2024-04-02T01:01:34.657Z,100.00
2024-04-02T01:04:09.112Z,100.00
2024-04-02T01:06:40.427Z,100.00
2024-04-02T01:09:11.937Z,100.00
2024-04-02T01:11:45.237Z,100.00
2024-04-02T01:14:16.606Z,100.00
2024-04-02T01:16:48.232Z,100.00
2024-04-02T01:19:19.208Z,100.00
2024-04-02T01:21:50.175Z,100.00
2024-04-02T01:24:20.920Z,100.00
2024-04-02T01:26:52.051Z,100.00
2024-04-02T01:29:23.199Z,100.00
2024-04-02T01:31:56.530Z,100.00
2024-04-02T01:34:27.106Z,100.00
2024-04-02T01:36:58.565Z,100.00
2024-04-02T01:39:29.868Z,100.00
2024-04-02T01:42:00.830Z,100.00
2024-04-02T01:44:31.901Z,100.00
2024-04-02T01:47:02.155Z,100.00
2024-04-02T01:49:33.485Z,100.00
2024-04-02T01:52:04.681Z,100.00
2024-04-02T01:54:35.634Z,100.00
2024-04-02T01:57:07.213Z,100.00
2024-04-02T01:59:38.423Z,100.00
2024-04-02T02:02:10.470Z,100.00
2024-04-02T02:04:42.194Z,100.00
2024-04-02T02:07:13.016Z,100.00
2024-04-02T02:09:43.964Z,100.00
2024-04-02T02:12:14.879Z,100.00
2024-04-02T02:14:46.352Z,100.00
2024-04-02T02:17:18.674Z,100.00
2024-04-02T02:19:52.429Z,100.00
2024-04-02T02:22:24.042Z,100.00
2024-04-02T02:24:54.980Z,100.00
2024-04-02T02:27:25.807Z,100.00
2024-04-02T02:29:55.757Z,100.00
2024-04-02T02:32:31.868Z,100.00
2024-04-02T02:35:03.248Z,100.00
2024-04-02T02:37:34.487Z,100.00
2024-04-02T02:40:08.379Z,100.00
2024-04-02T02:42:42.786Z,100.00
2024-04-02T02:45:15.603Z,100.00
2024-04-02T02:47:47.906Z,100.00
2024-04-02T02:50:18.900Z,100.00
2024-04-02T02:52:50.472Z,100.00
2024-04-02T02:55:24.708Z,100.00
2024-04-02T02:57:55.368Z,100.00
2024-04-02T03:00:26.236Z,100.00
2024-04-02T03:02:57.569Z,100.00
2024-04-02T03:05:28.346Z,100.00
2024-04-02T03:07:58.490Z,100.00
2024-04-02T03:10:28.783Z,100.00
2024-04-02T03:13:00.505Z,100.00
2024-04-02T03:15:33.720Z,100.00
2024-04-02T03:18:05.577Z,100.00
2024-04-02T03:20:41.540Z,100.00
2024-04-02T03:23:12.142Z,100.00
2024-04-02T03:25:43.351Z,100.00
2024-04-02T03:28:14.377Z,100.00
2024-04-02T03:30:45.641Z,100.00
2024-04-02T03:33:18.013Z,100.00
2024-04-02T03:35:49.937Z,100.00
2024-04-02T03:38:21.295Z,100.00
2024-04-02T03:40:52.740Z,100.00
2024-04-02T03:43:24.536Z,100.00
2024-04-02T03:45:56.204Z,100.00
2024-04-02T03:48:27.193Z,100.00
2024-04-02T03:50:59.237Z,100.00
2024-04-02T03:53:31.485Z,100.00
2024-04-02T03:56:07.953Z,100.00
2024-04-02T03:58:39.990Z,100.00
2024-04-02T04:01:11.553Z,100.00
2024-04-02T04:03:42.974Z,100.00
2024-04-02T04:06:14.359Z,100.00
2024-04-02T04:08:45.227Z,100.00
2024-04-02T04:11:16.376Z,100.00
2024-04-02T04:13:47.068Z,100.00
2024-04-02T04:16:18.174Z,100.00
2024-04-02T04:18:49.193Z,100.00
2024-04-02T04:21:21.072Z,100.00
2024-04-02T04:23:53.237Z,100.00
2024-04-02T04:26:26.355Z,100.00
2024-04-02T04:28:57.242Z,100.00
2024-04-02T04:31:27.166Z,100.00
2024-04-02T04:33:56.987Z,100.00
2024-04-02T04:36:26.554Z,100.00
2024-04-02T04:38:56.082Z,100.00
2024-04-02T04:41:26.900Z,100.00
2024-04-02T04:43:56.543Z,100.00
2024-04-02T04:46:26.447Z,100.00
2024-04-02T04:48:56.689Z,100.00
2024-04-02T04:51:26.880Z,100.00
2024-04-02T04:53:56.517Z,100.00
2024-04-02T04:56:26.123Z,100.00
2024-04-02T04:58:55.826Z,100.00
2024-04-02T05:01:25.818Z,100.00
2024-04-02T05:03:55.698Z,100.00
2024-04-02T05:06:25.494Z,100.00
2024-04-02T05:08:55.133Z,100.00
2024-04-02T05:11:24.901Z,100.00
2024-04-02T05:13:54.623Z,100.00
2024-04-02T05:16:24.644Z,100.00
2024-04-02T05:18:54.451Z,100.00
2024-04-02T05:21:24.088Z,100.00
2024-04-02T05:23:53.700Z,100.00
2024-04-02T05:26:24.540Z,100.00
2024-04-02T05:28:54.546Z,100.00
2024-04-02T05:31:24.339Z,100.00
2024-04-02T05:33:54.348Z,100.00
2024-04-02T05:36:25.267Z,100.00
2024-04-02T05:38:55.019Z,100.00
2024-04-02T05:41:24.651Z,100.00
2024-04-02T05:43:54.512Z,100.00
2024-04-02T05:46:24.480Z,100.00
2024-04-02T05:48:54.325Z,100.00
2024-04-02T05:51:24.161Z,100.00
2024-04-02T05:53:54.236Z,100.00
2024-04-02T05:56:24.142Z,100.00
2024-04-02T05:58:53.911Z,100.00
2024-04-02T06:01:27.032Z,100.00
2024-04-02T06:03:57.457Z,100.00
2024-04-02T06:06:27.422Z,100.00
2024-04-02T06:08:57.438Z,100.00
2024-04-02T06:11:27.745Z,99.99
2024-04-02T06:13:58.036Z,99.98
2024-04-02T06:16:27.717Z,100.00
2024-04-02T06:18:57.754Z,99.91
2024-04-02T06:21:27.568Z,99.99
2024-04-02T06:23:57.758Z,99.98
2024-04-02T06:26:27.844Z,99.91
2024-04-02T06:28:57.683Z,99.61
2024-04-02T06:31:27.959Z,99.87
2024-04-02T06:33:58.093Z,100.00
2024-04-02T06:36:27.682Z,99.94
2024-04-02T06:38:57.633Z,99.82
2024-04-02T06:41:27.578Z,99.46
2024-04-02T06:43:57.507Z,99.93
2024-04-02T06:46:27.183Z,99.36
2024-04-02T06:48:58.655Z,98.84
2024-04-02T06:51:28.616Z,99.13
2024-04-02T06:53:58.974Z,98.33
2024-04-02T06:56:28.774Z,98.44
2024-04-02T06:58:59.770Z,98.44
2024-04-02T07:01:29.522Z,98.28
2024-04-02T07:04:00.615Z,98.12
2024-04-02T07:06:30.607Z,97.82
2024-04-02T07:09:00.542Z,98.10
2024-04-02T07:11:30.426Z,97.22
2024-04-02T07:14:00.163Z,97.36
2024-04-02T07:16:30.044Z,97.75
2024-04-02T07:18:59.958Z,97.84
2024-04-02T07:21:30.648Z,98.07
2024-04-02T07:24:01.067Z,97.91
2024-04-02T07:26:32.952Z,97.58
2024-04-02T07:29:02.751Z,97.90
2024-04-02T07:31:32.553Z,98.17
2024-04-02T07:34:02.402Z,97.88
2024-04-02T07:36:31.969Z,97.59
2024-04-02T07:39:01.723Z,97.72
2024-04-02T07:41:31.765Z,97.55
2024-04-02T07:44:01.746Z,96.48
2024-04-02T07:46:31.582Z,96.90
2024-04-02T07:49:01.606Z,96.89
2024-04-02T07:51:32.212Z,96.63
2024-04-02T07:54:02.684Z,96.44
2024-04-02T07:56:33.016Z,96.56
2024-04-02T07:59:06.391Z,96.67
2024-04-02T08:01:37.951Z,96.03
2024-04-02T08:04:08.303Z,95.84
2024-04-02T08:06:38.217Z,96.32
2024-04-02T08:09:08.130Z,95.67
2024-04-02T08:11:38.572Z,95.54
2024-04-02T08:14:08.333Z,95.26
2024-04-02T08:16:38.441Z,95.48
2024-04-02T08:19:08.349Z,95.44
2024-04-02T08:21:38.487Z,95.30
2024-04-02T08:24:08.816Z,94.43
2024-04-02T08:26:39.860Z,93.46
2024-04-02T08:29:09.926Z,94.21
2024-04-02T08:31:40.107Z,93.75
2024-04-02T08:34:13.296Z,93.77
2024-04-02T08:36:44.256Z,93.02
2024-04-02T08:39:14.001Z,93.30
2024-04-02T08:41:44.147Z,92.59
2024-04-02T08:44:14.342Z,93.46
2024-04-02T08:46:44.062Z,92.28
2024-04-02T08:49:13.854Z,92.18
2024-04-02T08:51:43.869Z,92.02
2024-04-02T08:54:13.735Z,92.55
2024-04-02T08:56:44.313Z,92.38
2024-04-02T08:59:14.850Z,91.58
2024-04-02T09:01:46.065Z,91.45
2024-04-02T09:04:19.024Z,90.89
2024-04-02T09:06:49.464Z,90.43
2024-04-02T09:09:23.886Z,90.55
2024-04-02T09:11:54.818Z,89.53
2024-04-02T09:14:25.350Z,89.59
2024-04-02T09:16:58.329Z,90.80
2024-04-02T09:19:30.000Z,89.54
2024-04-02T09:22:00.129Z,88.35
2024-04-02T09:24:29.944Z,87.21
2024-04-02T09:27:01.337Z,88.49
2024-04-02T09:29:33.529Z,89.74
2024-04-02T09:32:04.134Z,87.92
2024-04-02T09:34:35.354Z,86.08
2024-04-02T09:37:17.120Z,86.62
2024-04-02T09:39:48.558Z,85.48
2024-04-02T09:42:19.147Z,84.59
2024-04-02T09:44:52.638Z,85.16
2024-04-02T09:47:22.456Z,85.10
2024-04-02T09:49:53.672Z,86.07
2024-04-02T09:52:23.680Z,84.21
2024-04-02T09:54:54.204Z,83.89
2024-04-02T09:57:24.161Z,83.33
2024-04-02T09:59:54.134Z,82.24
2024-04-02T10:02:26.835Z,81.62
2024-04-02T10:04:57.972Z,82.16
2024-04-02T10:07:31.259Z,81.97
2024-04-02T10:10:02.027Z,83.78
2024-04-02T10:12:33.741Z,83.85
2024-04-02T10:15:12.235Z,84.76
2024-04-02T10:17:42.074Z,83.79
2024-04-02T10:20:26.668Z,84.51
2024-04-02T10:22:57.296Z,82.65
2024-04-02T10:25:28.253Z,80.77
2024-04-02T10:28:00.427Z,79.34
2024-04-02T10:30:30.321Z,79.13
2024-04-02T10:32:59.955Z,79.46
2024-04-02T10:35:30.528Z,78.45
2024-04-02T10:38:00.859Z,78.15
2024-04-02T10:40:31.882Z,79.65
2024-04-02T10:43:01.844Z,80.79
2024-04-02T10:45:33.865Z,78.90
2024-04-02T10:48:06.343Z,78.91
2024-04-02T10:50:37.588Z,77.95
2024-04-02T10:53:27.330Z,78.07
2024-04-02T10:56:03.655Z,79.98
2024-04-02T10:58:35.590Z,78.35
2024-04-02T11:01:05.559Z,76.70
2024-04-02T11:03:37.391Z,77.35
2024-04-02T11:06:14.056Z,76.14
2024-04-02T11:09:03.239Z,76.40
2024-04-02T11:11:36.404Z,75.33
2024-04-02T11:14:08.166Z,74.00
2024-04-02T11:17:01.176Z,74.06
2024-04-02T11:19:31.446Z,75.42
2024-04-02T11:22:15.940Z,73.98
2024-04-02T11:25:17.955Z,74.39
2024-04-02T11:28:05.540Z,74.05
2024-04-02T11:30:35.360Z,73.25
2024-04-02T11:33:05.533Z,73.95
2024-04-02T11:35:35.523Z,74.89
2024-04-02T11:38:05.490Z,73.55
2024-04-02T11:40:35.224Z,73.92
2024-04-02T11:43:06.268Z,71.82
2024-04-02T11:45:36.436Z,73.15
2024-04-02T11:48:07.448Z,73.40
2024-04-02T11:50:37.438Z,74.26
2024-04-02T11:53:09.224Z,73.64
2024-04-02T11:55:40.028Z,73.68
2024-04-02T11:58:28.736Z,74.13
2024-04-02T12:01:00.981Z,73.26
2024-04-02T12:03:32.370Z,73.87
2024-04-02T12:06:02.160Z,74.15
2024-04-02T12:08:33.461Z,74.94
2024-04-02T12:11:03.226Z,73.06
2024-04-02T12:13:32.916Z,73.13
2024-04-02T12:16:03.240Z,71.48
2024-04-02T12:18:33.145Z,71.37
2024-04-02T12:21:03.134Z,72.39
2024-04-02T12:23:33.578Z,73.76
2024-04-02T12:26:04.921Z,72.86
2024-04-02T12:28:34.765Z,72.36
2024-04-02T12:31:05.166Z,68.55
2024-04-02T12:33:35.524Z,66.34
2024-04-02T12:36:06.939Z,66.90
2024-04-02T12:38:36.855Z,68.09
2024-04-02T12:41:06.759Z,70.09
2024-04-02T12:43:36.493Z,70.55
2024-04-02T12:46:06.376Z,70.55
2024-04-02T12:48:52.013Z,72.09
2024-04-02T12:51:27.191Z,72.12
2024-04-02T12:53:56.921Z,72.17
2024-04-02T12:56:27.143Z,72.08
2024-04-02T12:58:57.270Z,72.50
2024-04-02T13:01:27.701Z,71.57
2024-04-02T13:03:57.830Z,71.07
2024-04-02T13:06:27.955Z,70.18
2024-04-02T13:08:57.687Z,71.74
2024-04-02T13:11:27.469Z,71.53
2024-04-02T13:13:57.257Z,73.25
2024-04-02T13:16:35.828Z,70.56
2024-04-02T13:19:07.388Z,68.54
2024-04-02T13:21:38.793Z,68.21
2024-04-02T13:24:10.491Z,67.57
2024-04-02T13:26:40.524Z,67.89
2024-04-02T13:29:10.435Z,67.98
2024-04-02T13:31:40.607Z,68.22
2024-04-02T13:34:10.675Z,67.40
2024-04-02T13:36:40.602Z,69.55
2024-04-02T13:39:10.492Z,67.31
2024-04-02T13:41:40.260Z,68.15
2024-04-02T13:44:10.102Z,67.83
2024-04-02T13:46:40.309Z,68.46
2024-04-02T13:49:10.619Z,68.40
2024-04-02T13:51:40.600Z,68.75
2024-04-02T13:54:10.461Z,67.76
2024-04-02T13:56:40.465Z,67.74
2024-04-02T13:59:10.206Z,67.37
2024-04-02T14:01:40.666Z,68.33
2024-04-02T14:04:10.810Z,68.20
2024-04-02T14:06:43.088Z,68.20
2024-04-02T14:09:15.074Z,66.54
2024-04-02T14:11:47.573Z,67.16
2024-04-02T14:14:18.362Z,67.16
2024-04-02T14:16:48.624Z,66.81
2024-04-02T14:19:19.744Z,66.86
2024-04-02T14:21:53.433Z,67.88
2024-04-02T14:24:25.895Z,67.95
2024-04-02T14:26:56.086Z,68.69
2024-04-02T14:29:26.249Z,68.72
2024-04-02T14:31:56.575Z,68.58
2024-04-02T14:34:27.132Z,69.84
2024-04-02T14:37:00.539Z,70.61
2024-04-02T14:39:30.549Z,70.45
2024-04-02T14:42:00.730Z,70.68
2024-04-02T14:44:30.444Z,70.10
2024-04-02T14:47:01.194Z,70.13
2024-04-02T14:49:31.029Z,71.68
2024-04-02T14:52:00.735Z,71.82
2024-04-02T14:54:30.563Z,71.83
2024-04-02T14:57:00.316Z,72.42
2024-04-02T14:59:32.784Z,72.11
2024-04-02T15:02:02.378Z,71.91
2024-04-02T15:04:33.289Z,71.84
2024-04-02T15:07:03.149Z,71.54
2024-04-02T15:09:33.847Z,72.09
2024-04-02T15:12:06.497Z,72.28
2024-04-02T15:14:36.340Z,72.66
2024-04-02T15:17:07.369Z,72.77
2024-04-02T15:19:38.527Z,72.82
2024-04-02T15:22:08.452Z,72.78
2024-04-02T15:24:38.321Z,72.08
2024-04-02T15:27:09.127Z,72.18
2024-04-02T15:29:56.447Z,72.09
2024-04-02T15:32:27.086Z,72.07
2024-04-02T15:35:05.356Z,70.98
2024-04-02T15:37:41.046Z,69.83
2024-04-02T15:40:15.400Z,70.32
2024-04-02T15:42:46.591Z,70.43
2024-04-02T15:45:16.448Z,70.82
2024-04-02T15:47:47.467Z,71.83
2024-04-02T15:50:23.815Z,72.54
2024-04-02T15:52:55.367Z,72.45
2024-04-02T15:55:25.203Z,72.10
2024-04-02T15:57:57.724Z,72.97
2024-04-02T16:00:28.822Z,73.12
2024-04-02T16:02:58.305Z,74.17
2024-04-02T16:05:27.976Z,73.33
2024-04-02T16:07:57.744Z,73.60
2024-04-02T16:10:27.897Z,74.22
2024-04-02T16:12:58.672Z,74.14
2024-04-02T16:15:28.806Z,74.51
2024-04-02T16:18:04.843Z,75.26
2024-04-02T16:20:44.659Z,75.79
2024-04-02T16:23:14.309Z,76.59
2024-04-02T16:25:52.239Z,77.11
2024-04-02T16:28:23.631Z,77.73
2024-04-02T16:30:53.688Z,77.96
2024-04-02T16:33:23.421Z,78.14
2024-04-02T16:35:53.139Z,78.38
2024-04-02T16:38:23.085Z,78.72
2024-04-02T16:40:55.074Z,79.12
2024-04-02T16:43:25.732Z,79.24
2024-04-02T16:46:06.054Z,78.45
2024-04-02T16:48:36.396Z,75.79
2024-04-02T16:51:19.917Z,75.52
2024-04-02T16:53:55.852Z,75.70
2024-04-02T16:56:25.901Z,76.70
2024-04-02T16:58:56.798Z,77.34
2024-04-02T17:01:27.924Z,78.07
2024-04-02T17:03:57.584Z,78.92
2024-04-02T17:06:27.324Z,79.63
2024-04-02T17:08:57.712Z,80.27
2024-04-02T17:11:28.141Z,80.84
2024-04-02T17:14:00.676Z,81.14
2024-04-02T17:16:32.324Z,81.39
2024-04-02T17:19:02.376Z,81.43
2024-04-02T17:21:34.679Z,81.69
2024-04-02T17:24:04.892Z,81.88
2024-04-02T17:26:36.137Z,81.74
2024-04-02T17:29:06.470Z,81.96
2024-04-02T17:31:36.846Z,82.29
2024-04-02T17:34:07.928Z,82.79
2024-04-02T17:36:37.971Z,83.32
2024-04-02T17:39:08.243Z,83.74
2024-04-02T17:41:38.443Z,83.93
2024-04-02T17:44:08.851Z,83.76
2024-04-02T17:46:39.490Z,83.79
2024-04-02T17:49:09.652Z,84.03
2024-04-02T17:51:39.504Z,84.28
2024-04-02T17:54:09.527Z,84.66
2024-04-02T17:56:39.058Z,84.89
2024-04-02T17:59:11.190Z,84.83
2024-04-02T18:01:42.150Z,84.78
2024-04-02T18:04:11.756Z,84.80
2024-04-02T18:06:43.959Z,84.73
2024-04-02T18:09:16.696Z,84.79
2024-04-02T18:11:48.035Z,84.84
2024-04-02T18:14:22.663Z,84.94
2024-04-02T18:16:52.999Z,84.99
2024-04-02T18:19:22.885Z,85.10
2024-04-02T18:21:52.663Z,85.45
2024-04-02T18:24:22.671Z,85.80
2024-04-02T18:26:54.413Z,86.03
2024-04-02T18:29:25.684Z,86.34
2024-04-02T18:31:55.846Z,86.80
2024-04-02T18:34:25.821Z,87.20
2024-04-02T18:36:57.138Z,87.51
2024-04-02T18:39:31.403Z,87.66
2024-04-02T18:42:07.254Z,88.10
2024-04-02T18:44:37.018Z,88.33
2024-04-02T18:47:06.911Z,88.32
2024-04-02T18:49:36.566Z,88.39
2024-04-02T18:52:07.674Z,88.97
2024-04-02T18:54:37.679Z,89.30
2024-04-02T18:57:08.246Z,89.53
2024-04-02T18:59:37.857Z,89.96
2024-04-02T19:02:08.068Z,90.42
2024-04-02T19:04:37.969Z,90.54
2024-04-02T19:07:11.536Z,90.93
2024-04-02T19:09:42.478Z,91.27
2024-04-02T19:12:12.052Z,91.24
2024-04-02T19:14:42.132Z,91.46
2024-04-02T19:17:11.776Z,91.69
2024-04-02T19:19:42.951Z,91.69
2024-04-02T19:22:12.884Z,92.02
2024-04-02T19:24:42.679Z,92.05
2024-04-02T19:27:16.186Z,92.01
2024-04-02T19:29:48.491Z,91.98
2024-04-02T19:32:19.689Z,92.21
2024-04-02T19:34:49.392Z,92.34
2024-04-02T19:37:19.295Z,92.22
2024-04-02T19:39:53.288Z,92.33
2024-04-02T19:42:23.250Z,92.53
2024-04-02T19:44:54.801Z,92.49
2024-04-02T19:47:24.800Z,92.53
2024-04-02T19:49:54.494Z,92.43
2024-04-02T19:52:24.497Z,92.33
2024-04-02T19:54:54.167Z,92.09
2024-04-02T19:57:23.913Z,92.18
2024-04-02T19:59:54.321Z,91.93
2024-04-02T20:02:24.423Z,91.64
2024-04-02T20:04:55.109Z,91.70
2024-04-02T20:07:24.812Z,91.46
2024-04-02T20:09:54.669Z,91.43
2024-04-02T20:12:24.524Z,91.48
2024-04-02T20:14:54.198Z,91.60
2024-04-02T20:17:23.894Z,91.48
2024-04-02T20:19:53.761Z,91.75
2024-04-02T20:22:23.857Z,91.98
2024-04-02T20:24:58.780Z,91.92
2024-04-02T20:27:33.986Z,92.04
2024-04-02T20:30:04.518Z,92.17
2024-04-02T20:32:35.388Z,92.49
2024-04-02T20:35:16.188Z,92.59
2024-04-02T20:37:46.902Z,92.77
2024-04-02T20:40:16.826Z,92.86
2024-04-02T20:42:46.587Z,92.94
2024-04-02T20:45:16.413Z,92.85
2024-04-02T20:47:46.085Z,93.20
2024-04-02T20:50:15.698Z,93.38
2024-04-02T20:52:45.233Z,93.41
2024-04-02T20:55:16.053Z,93.63
2024-04-02T20:57:45.878Z,93.33
2024-04-02T21:00:16.722Z,93.37
2024-04-02T21:02:46.316Z,93.26
2024-04-02T21:05:17.922Z,93.23
2024-04-02T21:07:48.164Z,92.85
2024-04-02T21:10:18.082Z,92.44
2024-04-02T21:12:47.722Z,92.50
2024-04-02T21:15:18.859Z,92.23
2024-04-02T21:17:48.935Z,91.47
2024-04-02T21:20:19.112Z,91.79
2024-04-02T21:22:51.856Z,90.92
2024-04-02T21:25:22.482Z,90.49
2024-04-02T21:27:52.253Z,90.63
2024-04-02T21:30:21.849Z,90.39
2024-04-02T21:32:51.893Z,90.68
2024-04-02T21:35:23.370Z,90.42
2024-04-02T21:37:54.005Z,90.89
2024-04-02T21:40:24.152Z,90.31
2024-04-02T21:42:54.072Z,90.46
2024-04-02T21:45:24.095Z,90.25
2024-04-02T21:48:01.667Z,90.10
2024-04-02T21:50:33.178Z,89.96
2024-04-02T21:53:03.486Z,89.84
2024-04-02T21:55:33.078Z,89.80
2024-04-02T21:58:02.801Z,90.04
2024-04-02T22:00:32.458Z,90.19
2024-04-02T22:03:02.285Z,90.53
2024-04-02T22:05:32.493Z,90.74
2024-04-02T22:08:02.064Z,90.92
2024-04-02T22:10:31.767Z,91.50
2024-04-02T22:13:01.289Z,92.24
2024-04-02T22:15:31.027Z,92.25
2024-04-02T22:18:00.802Z,92.78
2024-04-02T22:20:30.461Z,92.78
2024-04-02T22:22:59.983Z,92.69
2024-04-02T22:25:29.878Z,92.70
2024-04-02T22:27:59.450Z,92.96
2024-04-02T22:30:29.126Z,92.91
2024-04-02T22:32:58.878Z,93.26
2024-04-02T22:35:29.107Z,93.20
2024-04-02T22:37:59.026Z,93.34
2024-04-02T22:40:28.489Z,93.56
2024-04-02T22:42:58.408Z,93.81
2024-04-02T22:45:27.919Z,93.70
2024-04-02T22:47:57.919Z,93.99
2024-04-02T22:50:29.511Z,93.69
2024-04-02T22:52:59.197Z,93.83
2024-04-02T22:55:28.713Z,93.55
2024-04-02T22:57:58.407Z,93.60
2024-04-02T23:00:28.852Z,93.80
2024-04-02T23:02:58.398Z,93.87
2024-04-02T23:05:28.253Z,94.31
2024-04-02T23:07:58.070Z,93.99
2024-04-02T23:10:27.680Z,94.25
2024-04-02T23:12:57.630Z,94.35
2024-04-02T23:15:27.428Z,94.66
2024-04-02T23:17:57.252Z,94.53
2024-04-02T23:20:26.787Z,94.83
2024-04-02T23:22:57.970Z,94.77
2024-04-02T23:25:28.093Z,94.47
2024-04-02T23:27:57.959Z,94.43
2024-04-02T23:30:27.724Z,94.45
2024-04-02T23:32:57.269Z,94.55
2024-04-02T23:35:26.792Z,94.36
2024-04-02T23:37:56.267Z,94.23
2024-04-02T23:40:25.810Z,94.58
2024-04-02T23:42:55.296Z,94.20
2024-04-02T23:45:24.824Z,94.27
2024-04-02T23:47:54.656Z,94.53
2024-04-02T23:50:24.144Z,94.28
2024-04-02T23:52:53.770Z,94.54
2024-04-02T23:55:23.657Z,94.46
2024-04-02T23:57:53.749Z,94.45
